createdAt,value
2023-04-04T00:00:27.989Z,0.30
2023-04-04T00:04:28.488Z,0.20
2023-04-04T00:08:29.099Z,0.00
2023-04-04T00:12:30.874Z,0.00
2023-04-04T00:16:34.254Z,0.00
2023-04-04T00:20:34.861Z,0.10
2023-04-04T00:24:35.246Z,0.20
2023-04-04T00:28:35.695Z,0.20
2023-04-04T00:32:39.032Z,0.20
2023-04-04T00:36:39.723Z,0.20
2023-04-04T00:40:46.477Z,0.20
2023-04-04T00:44:47.090Z,0.10
2023-04-04T00:48:52.648Z,0.20
2023-04-04T00:52:53.170Z,0.10
2023-04-04T00:56:55.644Z,0.10
2023-04-04T01:00:56.558Z,0.00
2023-04-04T01:05:00.235Z,0.00
2023-04-04T01:09:01.762Z,0.00
2023-04-04T01:13:02.281Z,-0.10
2023-04-04T01:17:04.807Z,-0.20
2023-04-04T01:21:14.329Z,-0.40
2023-04-04T01:25:16.075Z,-0.60
2023-04-04T01:29:23.055Z,-0.70
2023-04-04T01:33:31.678Z,-0.70
2023-04-04T01:37:40.149Z,-0.80
2023-04-04T01:41:44.458Z,-0.90
2023-04-04T01:45:48.129Z,-0.90
2023-04-04T01:49:48.625Z,-0.90
2023-04-04T01:53:49.523Z,-0.90
2023-04-04T01:57:50.171Z,-1.00
2023-04-04T02:01:54.249Z,-1.10
2023-04-04T02:05:54.978Z,-1.10
2023-04-04T02:09:55.381Z,-1.10
2023-04-04T02:13:55.886Z,-1.20
2023-04-04T02:18:01.870Z,-1.20
2023-04-04T02:22:02.964Z,-1.20
2023-04-04T02:26:03.648Z,-1.20
2023-04-04T02:30:03.986Z,-1.10
2023-04-04T02:34:07.343Z,-1.10
2023-04-04T02:38:07.969Z,-1.20
2023-04-04T02:42:15.406Z,-1.20
2023-04-04T02:46:21.619Z,-1.30
2023-04-04T02:50:30.101Z,-1.30
2023-04-04T02:54:34.247Z,-1.20
2023-04-04T02:58:36.719Z,-1.20
2023-04-04T03:02:37.703Z,-1.30
2023-04-04T03:06:41.595Z,-1.40
2023-04-04T03:10:43.021Z,-1.50
2023-04-04T03:14:44.155Z,-1.60
2023-04-04T03:18:45.068Z,-1.70
2023-04-04T03:22:48.739Z,-1.80
2023-04-04T03:26:50.102Z,-1.70
2023-04-04T03:30:50.607Z,-1.90
2023-04-04T03:34:52.327Z,-2.00
2023-04-04T03:38:55.846Z,-2.10
2023-04-04T03:42:56.579Z,-2.20
2023-04-04T03:46:57.214Z,-2.30
2023-04-04T03:50:59.596Z,-2.40
2023-04-04T03:55:04.845Z,-2.60
2023-04-04T03:59:05.229Z,-2.70
2023-04-04T04:03:06.461Z,-2.90
2023-04-04T04:07:08.148Z,-3.00
2023-04-04T04:11:12.111Z,-3.20
2023-04-04T04:15:13.300Z,-3.30
2023-04-04T04:19:18.240Z,-3.40
2023-04-04T04:23:20.143Z,-3.50
2023-04-04T04:27:26.765Z,-3.50
2023-04-04T04:31:28.577Z,-3.60
2023-04-04T04:35:31.077Z,-3.60
2023-04-04T04:39:32.940Z,-3.70
2023-04-04T04:43:55.650Z,-3.80
2023-04-04T04:47:59.138Z,-3.90
2023-04-04T04:51:59.878Z,-3.90
2023-04-04T04:56:01.008Z,-3.80
2023-04-04T05:00:04.662Z,-3.70
2023-04-04T05:04:05.529Z,-3.70
2023-04-04T05:08:14.164Z,-3.60
2023-04-04T05:12:25.916Z,-3.50
2023-04-04T05:16:29.496Z,-3.50
2023-04-04T05:20:32.260Z,-3.50
2023-04-04T05:24:34.812Z,-3.40
2023-04-04T05:28:36.132Z,-3.20
2023-04-04T05:32:42.168Z,-2.90
2023-04-04T05:36:51.081Z,-2.80
2023-04-04T05:40:52.013Z,-2.60
2023-04-04T05:44:52.573Z,-2.50
2023-04-04T05:48:57.286Z,-2.50
2023-04-04T05:52:59.688Z,-2.60
2023-04-04T05:57:00.406Z,-2.60
2023-04-04T06:01:16.601Z,-2.60
2023-04-04T06:05:21.130Z,-2.40
2023-04-04T06:09:21.674Z,-2.20
2023-04-04T06:13:23.325Z,-2.00
2023-04-04T06:17:28.894Z,-1.70
2023-04-04T06:21:32.264Z,-1.60
2023-04-04T06:25:33.387Z,-1.40
2023-04-04T06:29:35.029Z,-1.30
2023-04-04T06:33:36.724Z,-1.20
2023-04-04T06:37:40.393Z,-1.10
2023-04-04T06:41:53.640Z,-0.90
2023-04-04T06:45:59.917Z,-0.80
2023-04-04T06:50:00.443Z,-0.60
2023-04-04T06:54:04.229Z,-0.50
2023-04-04T06:58:04.898Z,-0.30
2023-04-04T07:02:05.492Z,-0.10
2023-04-04T07:06:06.793Z,0.10
2023-04-04T07:10:12.043Z,0.40
2023-04-04T07:14:12.364Z,0.70
2023-04-04T07:18:13.241Z,0.90
2023-04-04T07:22:13.683Z,1.10
2023-04-04T07:26:16.947Z,1.10
2023-04-04T07:30:18.743Z,1.30
2023-04-04T07:34:20.339Z,1.30
2023-04-04T07:38:20.916Z,1.40
2023-04-04T07:42:25.962Z,1.70
2023-04-04T07:46:27.988Z,2.10
2023-04-04T07:50:28.831Z,2.50
2023-04-04T07:54:29.251Z,2.50
2023-04-04T07:58:34.229Z,2.80
2023-04-04T08:02:34.569Z,3.30
2023-04-04T08:06:35.810Z,3.80
2023-04-04T08:10:36.746Z,3.80
2023-04-04T08:14:40.122Z,4.00
2023-04-04T08:18:40.910Z,4.50
2023-04-04T08:22:42.412Z,4.80
2023-04-04T08:26:48.988Z,5.20
2023-04-04T08:30:57.208Z,5.10
2023-04-04T08:34:58.428Z,4.90
2023-04-04T08:39:00.767Z,4.40
2023-04-04T08:43:03.916Z,3.90
2023-04-04T08:47:11.280Z,3.50
2023-04-04T08:51:15.122Z,3.60
2023-04-04T08:55:20.450Z,3.40
2023-04-04T08:59:26.177Z,3.40
2023-04-04T09:03:33.403Z,3.60
2023-04-04T09:07:36.472Z,3.80
2023-04-04T09:11:42.252Z,4.10
2023-04-04T09:15:52.173Z,4.40
2023-04-04T09:19:55.894Z,4.70
2023-04-04T09:24:03.504Z,5.30
2023-04-04T09:28:06.186Z,5.60
2023-04-04T09:32:12.071Z,5.60
2023-04-04T09:36:19.202Z,5.50
2023-04-04T09:40:23.982Z,5.00
2023-04-04T09:44:30.960Z,4.90
2023-04-04T09:48:35.034Z,5.00
2023-04-04T09:52:39.236Z,5.80
2023-04-04T09:56:43.733Z,6.50
2023-04-04T10:00:57.314Z,6.10
2023-04-04T10:05:06.046Z,6.50
2023-04-04T10:09:11.934Z,6.30
2023-04-04T10:13:14.701Z,6.50
2023-04-04T10:17:16.532Z,6.50
2023-04-04T10:21:17.704Z,6.60
2023-04-04T10:25:22.179Z,6.70
2023-04-04T10:29:28.096Z,6.70
2023-04-04T10:33:47.821Z,6.80
2023-04-04T10:38:00.082Z,6.40
2023-04-04T10:42:05.916Z,6.50
2023-04-04T10:46:15.644Z,6.30
2023-04-04T10:50:21.565Z,6.40
2023-04-04T10:54:27.538Z,7.00
2023-04-04T10:58:32.066Z,7.60
2023-04-04T11:03:00.078Z,7.90
2023-04-04T11:07:24.721Z,7.50
2023-04-04T11:11:27.206Z,7.70
2023-04-04T11:15:31.324Z,8.20
2023-04-04T11:20:05.799Z,7.80
2023-04-04T11:24:19.571Z,7.10
2023-04-04T11:28:48.915Z,7.10
2023-04-04T11:33:06.059Z,7.30
2023-04-04T11:37:21.044Z,7.10
2023-04-04T11:41:24.205Z,6.80
2023-04-04T11:45:29.927Z,6.80
2023-04-04T11:49:38.227Z,8.60
2023-04-04T11:53:38.617Z,8.60
2023-04-04T11:57:46.862Z,9.50
2023-04-04T12:01:48.729Z,11.00
2023-04-04T12:05:53.342Z,11.90
2023-04-04T12:09:56.269Z,11.10
2023-04-04T12:14:00.394Z,10.40
2023-04-04T12:18:03.213Z,10.10
2023-04-04T12:22:08.464Z,10.40
2023-04-04T12:26:13.320Z,11.00
2023-04-04T12:30:17.453Z,12.20
2023-04-04T12:34:25.425Z,11.90
2023-04-04T12:38:30.890Z,11.20
2023-04-04T12:42:36.351Z,11.80
2023-04-04T12:46:41.774Z,14.40
2023-04-04T12:50:57.421Z,16.10
2023-04-04T12:59:11.891Z,17.00
2023-04-04T13:03:20.502Z,16.80
2023-04-04T13:07:26.068Z,14.30
2023-04-04T13:12:03.325Z,12.20
2023-04-04T13:16:05.380Z,10.50
2023-04-04T13:20:06.252Z,10.60
2023-04-04T13:24:09.211Z,11.10
2023-04-04T13:28:14.605Z,10.80
2023-04-04T13:32:15.018Z,10.50
2023-04-04T13:36:18.274Z,10.50
2023-04-04T13:40:21.555Z,11.20
2023-04-04T13:44:28.466Z,11.60
2023-04-04T13:48:29.157Z,11.20
2023-04-04T13:52:29.729Z,10.40
2023-04-04T13:56:30.109Z,9.70
2023-04-04T14:00:34.208Z,8.90
2023-04-04T14:04:34.860Z,8.70
2023-04-04T14:08:35.597Z,8.10
2023-04-04T14:12:35.982Z,7.60
2023-04-04T14:16:42.688Z,7.80
2023-04-04T14:20:44.669Z,9.70
2023-04-04T14:24:45.079Z,11.40
2023-04-04T14:28:45.756Z,13.20
2023-04-04T14:32:49.883Z,14.00
2023-04-04T14:36:51.348Z,14.80
2023-04-04T14:40:52.713Z,14.60
2023-04-04T14:44:53.213Z,12.90
2023-04-04T14:48:56.642Z,12.10
2023-04-04T14:52:59.200Z,11.70
2023-04-04T14:57:02.579Z,11.10
2023-04-04T15:01:04.842Z,10.20
2023-04-04T15:05:10.893Z,9.70
2023-04-04T15:09:12.011Z,9.10
2023-04-04T15:13:13.884Z,8.80
2023-04-04T15:17:14.994Z,8.40
2023-04-04T15:21:18.411Z,9.90
2023-04-04T15:25:18.954Z,11.90
2023-04-04T15:29:19.404Z,12.10
2023-04-04T15:33:20.152Z,11.50
2023-04-04T15:37:23.567Z,10.80
2023-04-04T15:41:24.489Z,10.30
2023-04-04T15:45:27.548Z,9.90
2023-04-04T15:49:29.176Z,9.00
2023-04-04T15:53:32.941Z,8.30
2023-04-04T15:57:33.696Z,7.90
2023-04-04T16:01:36.775Z,7.50
2023-04-04T16:05:37.634Z,7.30
2023-04-04T16:09:41.176Z,7.20
2023-04-04T16:13:41.653Z,7.10
2023-04-04T16:17:42.101Z,7.20
2023-04-04T16:21:42.943Z,7.20
2023-04-04T16:25:47.497Z,7.20
2023-04-04T16:29:47.931Z,7.10
2023-04-04T16:33:48.346Z,6.90
2023-04-04T16:37:49.928Z,6.90
2023-04-04T16:41:53.200Z,6.70
2023-04-04T16:45:53.777Z,6.50
2023-04-04T16:49:55.180Z,6.40
2023-04-04T16:53:56.484Z,6.20
2023-04-04T16:58:00.287Z,5.90
2023-04-04T17:02:01.500Z,5.50
2023-04-04T17:06:02.460Z,5.20
2023-04-04T17:10:03.271Z,5.10
2023-04-04T17:14:06.327Z,4.90
2023-04-04T17:18:07.313Z,4.70
2023-04-04T17:22:08.022Z,4.60
2023-04-04T17:26:08.557Z,4.30
2023-04-04T17:30:14.506Z,4.10
2023-04-04T17:34:15.889Z,4.00
2023-04-04T17:38:16.589Z,3.90
2023-04-04T17:42:18.416Z,3.70
2023-04-04T17:46:21.499Z,3.50
2023-04-04T17:50:23.527Z,3.30
2023-04-04T17:54:27.119Z,3.10
2023-04-04T17:58:29.131Z,3.00
2023-04-04T18:02:33.858Z,2.90
2023-04-04T18:06:34.652Z,2.80
2023-04-04T18:10:37.697Z,2.70
2023-04-04T18:14:41.503Z,2.60
2023-04-04T18:18:45.283Z,2.50
2023-04-04T18:22:48.620Z,2.40
2023-04-04T18:26:52.386Z,2.40
2023-04-04T18:30:53.313Z,2.40
2023-04-04T18:34:56.355Z,2.30
2023-04-04T18:38:56.847Z,2.20
2023-04-04T18:42:57.470Z,2.10
2023-04-04T18:47:00.716Z,2.00
2023-04-04T18:51:04.699Z,1.90
2023-04-04T18:55:06.494Z,1.80
2023-04-04T18:59:09.883Z,1.80
2023-04-04T19:03:13.012Z,1.70
2023-04-04T19:07:22.265Z,1.90
2023-04-04T19:11:23.192Z,1.90
2023-04-04T19:15:25.797Z,1.90
2023-04-04T19:19:26.813Z,2.00
2023-04-04T19:23:34.464Z,2.00
2023-04-04T19:27:36.478Z,2.00
2023-04-04T19:31:37.097Z,2.00
2023-04-04T19:35:54.755Z,2.00
2023-04-04T19:39:59.306Z,2.10
2023-04-04T19:43:59.719Z,2.10
2023-04-04T19:48:11.386Z,2.10
2023-04-04T19:52:12.295Z,2.10
2023-04-04T19:56:19.793Z,2.10
2023-04-04T20:00:26.175Z,2.10
2023-04-04T20:04:28.539Z,2.10
2023-04-04T20:08:41.812Z,2.10
2023-04-04T20:12:46.057Z,2.00
2023-04-04T20:16:48.195Z,2.00
2023-04-04T20:21:01.914Z,1.90
2023-04-04T20:25:03.288Z,1.80
2023-04-04T20:29:10.336Z,1.80
2023-04-04T20:33:38.189Z,1.60
2023-04-04T20:37:39.449Z,1.40
2023-04-04T20:41:40.387Z,1.30
2023-04-04T20:45:47.332Z,1.30
2023-04-04T20:49:47.662Z,1.20
2023-04-04T20:53:48.240Z,1.20
2023-04-04T20:57:50.837Z,1.20
2023-04-04T21:01:54.004Z,1.30
2023-04-04T21:05:56.374Z,1.30
2023-04-04T21:10:21.592Z,1.30
2023-04-04T21:14:26.678Z,1.30
2023-04-04T21:18:34.275Z,1.20
2023-04-04T21:22:35.210Z,1.20
2023-04-04T21:26:37.512Z,1.20
2023-04-04T21:30:47.720Z,1.20
2023-04-04T21:34:51.335Z,1.10
2023-04-04T21:38:54.638Z,1.10
2023-04-04T21:42:56.488Z,1.00
2023-04-04T21:46:57.413Z,0.90
2023-04-04T21:51:00.668Z,0.80
2023-04-04T21:55:01.133Z,0.80
2023-04-04T21:59:02.140Z,0.70
2023-04-04T22:03:04.982Z,0.70
2023-04-04T22:07:07.947Z,0.60
2023-04-04T22:11:13.643Z,0.50
2023-04-04T22:15:17.805Z,0.40
2023-04-04T22:19:18.169Z,0.40
2023-04-04T22:23:23.087Z,0.40
2023-04-04T22:27:25.488Z,0.30
2023-04-04T22:31:26.134Z,0.30
2023-04-04T22:35:26.768Z,0.30
2023-04-04T22:39:35.571Z,0.20
2023-04-04T22:43:38.474Z,0.10
2023-04-04T22:47:38.960Z,0.00
2023-04-04T22:51:44.279Z,-0.20
2023-04-04T22:55:47.500Z,-0.40
2023-04-04T22:59:48.112Z,-0.50
2023-04-04T23:03:48.857Z,-0.60
2023-04-04T23:07:49.746Z,-0.80
2023-04-04T23:11:52.896Z,-0.80
2023-04-04T23:15:53.557Z,-0.80
2023-04-04T23:19:54.285Z,-0.90
2023-04-04T23:23:54.617Z,-0.90
2023-04-04T23:27:57.481Z,-0.90
2023-04-04T23:31:58.147Z,-0.90
2023-04-04T23:35:58.455Z,-0.90
2023-04-04T23:39:59.073Z,-1.00
2023-04-04T23:44:02.258Z,-1.00
2023-04-04T23:48:04.851Z,-1.10
2023-04-04T23:52:05.563Z,-1.10
2023-04-04T23:56:06.518Z,-1.00
